Time;durP1;ratioP1;P1;durP2;ratioP2;P2;SDS_P1;SDS_P2;PMS_P1;PMS_P2;Temp;Humidity;BMP_temperature;BMP_pressure;BME280_temperature;BME280_humidity;BME280_pressure;Samples;Min_cycle;Max_cycle;Signal;HPM_P1;HPM_P2
2022/02/05 00:00:30;;;;;;;;;;;3.80;97.90;;;;;;5082422;28;20138;-73
2022/02/05 00:05:34;;;;;;;;;;;3.80;97.70;;;;;;5080669;28;19908;-73
2022/02/05 00:13:58;;;;;;;;;;;3.80;97.40;;;;;;5062880;28;19930;-73
2022/02/05 00:38:36;;;;;;;;;;;3.40;95.70;;;;;;5081531;28;20248;-72
2022/02/05 00:41:11;;;;;;;;;;;3.40;95.70;;;;;;5081112;28;19945;-72
2022/02/05 00:43:38;;;;;;;;;;;3.30;95.70;;;;;;5082304;28;20223;-72
2022/02/05 00:46:06;;;;;;;;;;;3.40;95.70;;;;;;5081398;28;19987;-72
2022/02/05 00:48:32;;;;;;;;;;;3.40;96.00;;;;;;5081076;28;20257;-71
2022/02/05 00:51:10;;;;;;;;;;;3.50;95.90;;;;;;5082083;28;19991;-73
2022/02/05 00:53:38;;;;;;;;;;;3.40;96.10;;;;;;5082337;28;19922;-73
2022/02/05 00:56:20;;;;;;;;;;;3.40;96.00;;;;;;5082080;28;19924;-73
2022/02/05 00:58:46;;;;;;;;;;;3.40;96.20;;;;;;5082371;28;19991;-73
2022/02/05 01:01:11;;;;;;;;;;;3.30;96.20;;;;;;5082074;28;20241;-75
2022/02/05 01:03:37;;;;;;;;;;;3.20;96.30;;;;;;5081122;28;19908;-76
2022/02/05 01:06:04;;;;;;;;;;;3.20;96.10;;;;;;5081771;28;20207;-76
2022/02/05 01:08:30;;;;;;;;;;;3.00;96.20;;;;;;5064503;28;19916;-75
2022/02/05 01:10:56;;;;;;;;;;;3.00;95.90;;;;;;5080491;28;19947;-74
2022/02/05 01:13:22;;;;;;;;;;;2.90;96.20;;;;;;5064329;28;20147;-75
2022/02/05 01:15:59;;;;;;;;;;;2.80;96.20;;;;;;5082223;28;19908;-75
2022/02/05 01:18:26;;;;;;;;;;;2.80;96.20;;;;;;5082164;28;19930;-74
2022/02/05 01:23:55;;;;;;;;;;;2.70;95.60;;;;;;5082167;28;20292;-74
2022/02/05 01:28:48;;;;;;;;;;;2.60;96.00;;;;;;5082030;28;19916;-76
2022/02/05 01:31:14;;;;;;;;;;;2.60;95.50;;;;;;5084163;28;19936;-75
2022/02/05 01:52:19;;;;;;;;;;;2.30;95.70;;;;;;5084899;28;19912;-74
2022/02/05 01:55:12;;;;;;;;;;;2.30;95.90;;;;;;5084326;28;19959;-75
2022/02/05 02:05:30;;;;;;;;;;;2.20;95.70;;;;;;5083980;28;20112;-74
2022/02/05 02:10:39;;;;;;;;;;;2.30;95.80;;;;;;5083655;28;19950;-74
2022/02/05 02:15:53;;;;;;;;;;;2.30;95.70;;;;;;5084845;28;19908;-74
2022/02/05 02:18:39;;;;;;;;;;;2.30;95.80;;;;;;5084757;28;19975;-74
2022/02/05 02:31:39;;;;;;;;;;;2.30;95.40;;;;;;5060510;28;20080;-72
2022/02/05 02:34:09;;;;;;;;;;;2.30;95.10;;;;;;5084428;28;19924;-73
2022/02/05 02:39:27;;;;;;;;;;;2.20;95.40;;;;;;5067186;22;19922;-70
2022/02/05 02:44:12;;;;;;;;;;;2.20;95.20;;;;;;5020515;28;19909;-69
2022/02/05 02:46:38;;;;;;;;;;;2.20;95.10;;;;;;5039472;28;20389;-69
2022/02/05 02:49:05;;;;;;;;;;;2.30;94.80;;;;;;5024007;28;19996;-69
2022/02/05 02:59:56;;;;;;;;;;;2.50;93.80;;;;;;5023400;28;19913;-68
2022/02/05 03:02:24;;;;;;;;;;;2.50;93.60;;;;;;5023664;28;19909;-67
2022/02/05 03:04:50;;;;;;;;;;;2.50;93.60;;;;;;5006797;28;19909;-67
2022/02/05 03:07:16;;;;;;;;;;;2.60;93.60;;;;;;5023735;28;19909;-68
2022/02/05 03:09:43;;;;;;;;;;;2.60;93.20;;;;;;5023915;28;19959;-68
2022/02/05 03:12:09;;;;;;;;;;;2.60;93.10;;;;;;5023448;28;19996;-68
2022/02/05 03:14:35;;;;;;;;;;;2.60;93.10;;;;;;5023684;28;20108;-68
2022/02/05 03:17:04;;;;;;;;;;;2.60;93.10;;;;;;5023696;28;19945;-68
2022/02/05 03:19:29;;;;;;;;;;;2.60;93.20;;;;;;5023720;28;20230;-67
2022/02/05 03:21:55;;;;;;;;;;;2.60;93.20;;;;;;5023345;28;19909;-67
2022/02/05 03:24:21;;;;;;;;;;;2.60;93.40;;;;;;5023329;28;19924;-67
2022/02/05 03:26:47;;;;;;;;;;;2.60;93.30;;;;;;5023360;28;19973;-67
2022/02/05 03:29:13;;;;;;;;;;;2.60;93.10;;;;;;5023437;28;19917;-67
2022/02/05 03:31:39;;;;;;;;;;;2.60;93.40;;;;;;5023222;28;19988;-67
2022/02/05 03:34:05;;;;;;;;;;;2.70;93.10;;;;;;5023519;28;19917;-67
2022/02/05 03:36:32;;;;;;;;;;;2.70;92.90;;;;;;5023459;28;20011;-67
2022/02/05 03:38:59;;;;;;;;;;;2.70;92.70;;;;;;5022987;28;20156;-67
2022/02/05 03:41:25;;;;;;;;;;;2.70;92.60;;;;;;5005532;28;19909;-68
2022/02/05 03:43:51;;;;;;;;;;;2.70;92.70;;;;;;5023269;28;20036;-67
2022/02/05 03:46:16;;;;;;;;;;;2.80;92.40;;;;;;5023230;28;20120;-67
2022/02/05 03:48:42;;;;;;;;;;;2.90;92.10;;;;;;5023196;28;20143;-67
2022/02/05 03:51:08;;;;;;;;;;;2.90;92.10;;;;;;5023111;28;19922;-68
2022/02/05 03:53:33;;;;;;;;;;;2.80;92.20;;;;;;5022568;28;19948;-67
2022/02/05 03:55:59;;;;;;;;;;;2.90;92.10;;;;;;5024040;28;19916;-67
2022/02/05 03:58:25;;;;;;;;;;;2.80;92.10;;;;;;5023062;28;19981;-68
2022/02/05 04:00:50;;;;;;;;;;;2.90;92.10;;;;;;5022661;28;19917;-67
2022/02/05 04:03:16;;;;;;;;;;;2.90;91.90;;;;;;5022881;28;19914;-68
2022/02/05 04:05:42;;;;;;;;;;;2.90;91.80;;;;;;5022475;28;19914;-68
2022/02/05 04:08:10;;;;;;;;;;;2.90;92.10;;;;;;5002866;28;19910;-68
2022/02/05 04:10:44;;;;;;;;;;;3.00;91.90;;;;;;5002719;28;19917;-69
2022/02/05 04:16:07;;;;;;;;;;;3.00;91.80;;;;;;4988491;28;19956;-68
2022/02/05 04:18:33;;;;;;;;;;;3.00;91.80;;;;;;5003076;28;19924;-68
2022/02/05 04:20:59;;;;;;;;;;;3.00;91.80;;;;;;5002766;28;20105;-68
2022/02/05 04:23:24;;;;;;;;;;;3.00;91.80;;;;;;4985517;28;19964;-68
2022/02/05 04:25:50;;;;;;;;;;;3.00;91.80;;;;;;5003059;28;19910;-68
2022/02/05 04:28:16;;;;;;;;;;;3.00;91.70;;;;;;5002898;28;19910;-68
2022/02/05 04:30:41;;;;;;;;;;;3.00;91.70;;;;;;5002645;28;19913;-68
2022/02/05 04:33:07;;;;;;;;;;;3.00;91.80;;;;;;5002881;28;19956;-67
2022/02/05 04:35:33;;;;;;;;;;;3.00;91.70;;;;;;5002805;28;20225;-68
2022/02/05 04:38:01;;;;;;;;;;;3.10;91.80;;;;;;5003447;28;19999;-68
2022/02/05 04:40:36;;;;;;;;;;;3.00;91.90;;;;;;5022416;28;19914;-67
2022/02/05 04:46:11;;;;;;;;;;;3.00;92.20;;;;;;5022499;28;19910;-68
2022/02/05 04:51:59;;;;;;;;;;;3.00;92.00;;;;;;5020102;28;19995;-68
2022/02/05 04:54:45;;;;;;;;;;;3.00;92.20;;;;;;5020166;28;19917;-67
2022/02/05 04:57:29;;;;;;;;;;;3.00;91.90;;;;;;5021916;28;19972;-67
2022/02/05 05:02:52;;;;;;;;;;;2.90;92.20;;;;;;5022035;28;19921;-67
2022/02/05 05:10:35;;;;;;;;;;;2.70;92.60;;;;;;5025931;28;19920;-68
2022/02/05 05:13:16;;;;;;;;;;;2.70;92.60;;;;;;5026000;28;19909;-69
2022/02/05 05:21:12;;;;;;;;;;;2.60;92.90;;;;;;5025726;28;19917;-69
2022/02/05 05:23:38;;;;;;;;;;;2.50;92.90;;;;;;5008045;28;19917;-69
2022/02/05 05:26:04;;;;;;;;;;;2.50;93.00;;;;;;5025820;28;19909;-69
2022/02/05 05:28:30;;;;;;;;;;;2.50;92.90;;;;;;5025651;28;19916;-69
2022/02/05 05:30:55;;;;;;;;;;;2.60;92.90;;;;;;5025402;28;20231;-68
2022/02/05 05:33:21;;;;;;;;;;;2.60;93.00;;;;;;5025663;28;19945;-69
2022/02/05 05:35:47;;;;;;;;;;;2.60;92.90;;;;;;5025654;28;19980;-68
2022/02/05 05:38:12;;;;;;;;;;;2.60;92.80;;;;;;5025130;28;19920;-68
2022/02/05 05:40:41;;;;;;;;;;;2.60;92.80;;;;;;5025334;28;19937;-68
2022/02/05 05:43:17;;;;;;;;;;;2.60;92.90;;;;;;5025523;28;19917;-67
2022/02/05 05:51:09;;;;;;;;;;;2.60;92.90;;;;;;5025606;28;19928;-68
2022/02/05 05:53:34;;;;;;;;;;;2.50;93.10;;;;;;5025344;28;19910;-68
2022/02/05 05:56:02;;;;;;;;;;;2.50;93.20;;;;;;5025486;28;19917;-68
2022/02/05 05:58:28;;;;;;;;;;;2.40;93.20;;;;;;5025427;28;19944;-68
2022/02/05 06:00:55;;;;;;;;;;;2.40;93.30;;;;;;5025133;28;19924;-68
2022/02/05 06:03:20;;;;;;;;;;;2.40;93.30;;;;;;5025513;28;19916;-70
2022/02/05 06:05:46;;;;;;;;;;;2.40;93.50;;;;;;5025467;28;19909;-68
2022/02/05 06:08:12;;;;;;;;;;;2.40;93.40;;;;;;5024830;28;19968;-68
2022/02/05 06:10:38;;;;;;;;;;;2.40;93.40;;;;;;5024807;28;19952;-68
2022/02/05 06:13:03;;;;;;;;;;;2.40;93.60;;;;;;5024866;28;19976;-68
2022/02/05 06:15:29;;;;;;;;;;;2.30;93.60;;;;;;5024698;28;19916;-68
2022/02/05 06:17:55;;;;;;;;;;;2.30;93.70;;;;;;5025013;28;19979;-68
2022/02/05 06:20:20;;;;;;;;;;;2.30;93.90;;;;;;5024861;28;19909;-69
2022/02/05 06:22:46;;;;;;;;;;;2.20;93.90;;;;;;5024318;28;20093;-69
2022/02/05 06:25:12;;;;;;;;;;;2.20;94.00;;;;;;5024745;28;19909;-69
2022/02/05 06:27:37;;;;;;;;;;;2.20;94.10;;;;;;5007060;28;19948;-67
2022/02/05 06:30:04;;;;;;;;;;;2.10;94.30;;;;;;5024570;28;19917;-68
2022/02/05 06:32:29;;;;;;;;;;;2.10;94.30;;;;;;5024080;28;19909;-68
2022/02/05 06:34:55;;;;;;;;;;;2.10;94.20;;;;;;5024355;28;19943;-68
2022/02/05 06:37:21;;;;;;;;;;;2.10;94.20;;;;;;5024201;28;19929;-68
2022/02/05 06:39:46;;;;;;;;;;;2.10;94.20;;;;;;5024123;28;20204;-67
2022/02/05 06:42:12;;;;;;;;;;;2.20;94.20;;;;;;5024000;28;19917;-68
2022/02/05 06:44:38;;;;;;;;;;;2.30;94.00;;;;;;5024205;28;20195;-68
2022/02/05 06:47:04;;;;;;;;;;;2.30;94.00;;;;;;5024091;28;19930;-68
2022/02/05 06:49:30;;;;;;;;;;;2.30;93.80;;;;;;5024122;28;20208;-68
2022/02/05 06:51:57;;;;;;;;;;;2.40;93.70;;;;;;5023801;28;19959;-67
2022/02/05 06:54:22;;;;;;;;;;;2.40;93.90;;;;;;5022491;28;19909;-69
2022/02/05 06:56:48;;;;;;;;;;;2.30;93.90;;;;;;5006515;28;20228;-69
2022/02/05 06:59:14;;;;;;;;;;;2.40;94.00;;;;;;5023677;28;19986;-69
2022/02/05 07:01:39;;;;;;;;;;;2.40;93.90;;;;;;5023369;28;20156;-68
2022/02/05 07:04:06;;;;;;;;;;;2.40;93.80;;;;;;5023812;28;19940;-69
2022/02/05 07:06:32;;;;;;;;;;;2.30;94.00;;;;;;5023902;28;19909;-69
2022/02/05 07:08:58;;;;;;;;;;;2.40;93.90;;;;;;5023425;28;19917;-70
2022/02/05 07:11:24;;;;;;;;;;;2.40;93.90;;;;;;5005723;28;19921;-70
2022/02/05 07:13:52;;;;;;;;;;;2.50;93.90;;;;;;5023608;28;19909;-69
2022/02/05 07:16:41;;;;;;;;;;;2.50;94.00;;;;;;4990108;28;19967;-69
2022/02/05 07:19:30;;;;;;;;;;;2.50;94.00;;;;;;5023282;28;19917;-71
2022/02/05 07:21:56;;;;;;;;;;;2.50;93.90;;;;;;5005518;28;19909;-71
2022/02/05 07:29:34;;;;;;;;;;;2.50;93.70;;;;;;5023494;28;20227;-70
2022/02/05 07:32:00;;;;;;;;;;;2.60;93.80;;;;;;5022898;28;19980;-70
2022/02/05 07:34:27;;;;;;;;;;;2.60;93.70;;;;;;5000082;28;20213;-70
2022/02/05 07:36:59;;;;;;;;;;;2.60;93.80;;;;;;5013923;28;19913;-71
2022/02/05 07:39:24;;;;;;;;;;;2.60;93.70;;;;;;5006411;28;19916;-71
2022/02/05 07:41:50;;;;;;;;;;;2.60;93.60;;;;;;5022883;28;20184;-72
2022/02/05 07:44:16;;;;;;;;;;;2.70;93.60;;;;;;5005752;28;19909;-72
2022/02/05 07:46:45;;;;;;;;;;;2.70;93.70;;;;;;5005775;28;20195;-71
2022/02/05 07:49:15;;;;;;;;;;;2.70;93.60;;;;;;5005625;28;19916;-71
2022/02/05 07:51:41;;;;;;;;;;;2.70;93.60;;;;;;4989015;28;19945;-71
2022/02/05 07:54:11;;;;;;;;;;;2.70;93.40;;;;;;5022781;28;19916;-71
2022/02/05 07:56:43;;;;;;;;;;;2.80;93.50;;;;;;5022976;28;19969;-71
2022/02/05 07:59:10;;;;;;;;;;;2.80;93.70;;;;;;5005982;28;19937;-71
2022/02/05 08:01:36;;;;;;;;;;;2.90;93.30;;;;;;5022752;28;19910;-71
2022/02/05 08:04:02;;;;;;;;;;;2.90;93.20;;;;;;5022867;28;19916;-71
2022/02/05 08:06:27;;;;;;;;;;;2.90;93.30;;;;;;5022840;28;19909;-71
2022/02/05 08:08:58;;;;;;;;;;;2.90;93.20;;;;;;5022540;28;19951;-71
2022/02/05 08:11:32;;;;;;;;;;;2.90;93.10;;;;;;5005052;28;20139;-71
2022/02/05 08:14:05;;;;;;;;;;;2.90;93.10;;;;;;5022837;28;19924;-70
2022/02/05 08:19:15;;;;;;;;;;;2.90;93.10;;;;;;5007879;28;19956;-71
2022/02/05 08:21:41;;;;;;;;;;;2.80;93.00;;;;;;5004970;28;19909;-71
2022/02/05 08:24:07;;;;;;;;;;;2.70;93.20;;;;;;5019579;28;19921;-71
2022/02/05 08:26:33;;;;;;;;;;;2.70;93.40;;;;;;5021930;28;19923;-71
2022/02/05 08:29:00;;;;;;;;;;;2.70;93.50;;;;;;5020793;28;19952;-70
2022/02/05 08:31:26;;;;;;;;;;;2.70;93.40;;;;;;5019373;28;19945;-71
2022/02/05 08:33:52;;;;;;;;;;;2.70;93.50;;;;;;5022383;28;19948;-71
2022/02/05 08:36:20;;;;;;;;;;;2.80;93.60;;;;;;5022475;28;20435;-71
2022/02/05 08:38:46;;;;;;;;;;;2.80;93.60;;;;;;5004842;28;19924;-71
2022/02/05 08:41:11;;;;;;;;;;;2.80;93.60;;;;;;5026124;28;19909;-71
2022/02/05 08:43:37;;;;;;;;;;;2.90;93.40;;;;;;5026160;28;19981;-71
2022/02/05 08:46:03;;;;;;;;;;;2.90;93.20;;;;;;5008890;28;20213;-71
2022/02/05 08:48:28;;;;;;;;;;;3.00;93.00;;;;;;5026368;28;19988;-71
2022/02/05 08:50:54;;;;;;;;;;;3.00;93.20;;;;;;5025866;28;19913;-71
2022/02/05 08:53:21;;;;;;;;;;;3.00;93.10;;;;;;5008282;28;20200;-71
2022/02/05 08:55:51;;;;;;;;;;;3.10;92.90;;;;;;5026178;28;19909;-71
2022/02/05 08:58:17;;;;;;;;;;;3.20;92.80;;;;;;5008675;28;20219;-71
2022/02/05 09:00:47;;;;;;;;;;;3.20;92.60;;;;;;5025756;28;19910;-71
2022/02/05 09:03:37;;;;;;;;;;;3.30;92.70;;;;;;5025817;28;19910;-71
2022/02/05 09:06:03;;;;;;;;;;;3.30;92.50;;;;;;5011543;28;19991;-71
2022/02/05 09:08:50;;;;;;;;;;;3.40;92.40;;;;;;5007995;28;19917;-71
2022/02/05 09:11:31;;;;;;;;;;;3.50;92.30;;;;;;5025252;28;19917;-71
2022/02/05 09:14:28;;;;;;;;;;;3.60;91.80;;;;;;5025764;28;19910;-71
2022/02/05 09:16:54;;;;;;;;;;;3.60;91.30;;;;;;5025679;28;19918;-71
2022/02/05 09:19:20;;;;;;;;;;;3.60;91.00;;;;;;5025787;28;19917;-71
2022/02/05 09:21:46;;;;;;;;;;;3.70;91.50;;;;;;5025277;28;19917;-72
2022/02/05 09:24:11;;;;;;;;;;;3.80;91.70;;;;;;5010416;28;19914;-71
2022/02/05 09:26:42;;;;;;;;;;;3.90;91.00;;;;;;5006035;28;19917;-71
2022/02/05 09:29:14;;;;;;;;;;;4.00;90.90;;;;;;4989028;28;19910;-71
2022/02/05 09:31:40;;;;;;;;;;;4.00;91.30;;;;;;4989115;28;19968;-71
2022/02/05 09:34:05;;;;;;;;;;;4.00;90.50;;;;;;4988301;28;19909;-71
2022/02/05 09:36:32;;;;;;;;;;;3.90;91.10;;;;;;5012471;28;19978;-72
2022/02/05 09:38:58;;;;;;;;;;;4.00;90.40;;;;;;5025074;28;19913;-71
2022/02/05 09:41:24;;;;;;;;;;;3.90;90.60;;;;;;5025142;28;19918;-72
2022/02/05 09:43:50;;;;;;;;;;;3.90;90.10;;;;;;5007749;28;19910;-72
2022/02/05 09:46:16;;;;;;;;;;;3.90;90.60;;;;;;5024756;28;19940;-72
2022/02/05 09:48:43;;;;;;;;;;;4.00;90.50;;;;;;4985793;28;20231;-72
2022/02/05 09:51:15;;;;;;;;;;;4.00;90.20;;;;;;5014584;28;20276;-71
2022/02/05 09:53:50;;;;;;;;;;;3.90;90.10;;;;;;5009106;28;19952;-71
2022/02/05 09:56:17;;;;;;;;;;;3.90;90.40;;;;;;5007925;28;19910;-71
2022/02/05 09:58:43;;;;;;;;;;;4.00;90.10;;;;;;5007323;28;19909;-71
2022/02/05 10:01:14;;;;;;;;;;;4.00;90.10;;;;;;5023437;28;19979;-72
2022/02/05 10:03:42;;;;;;;;;;;3.90;90.60;;;;;;5008383;28;19910;-73
2022/02/05 10:06:18;;;;;;;;;;;4.10;89.90;;;;;;5007490;28;19909;-72
2022/02/05 10:09:05;;;;;;;;;;;4.10;89.00;;;;;;5008452;28;19956;-73
2022/02/05 10:11:30;;;;;;;;;;;4.20;89.30;;;;;;5009269;28;19968;-72
2022/02/05 10:14:16;;;;;;;;;;;4.30;88.20;;;;;;4991055;28;20252;-73
2022/02/05 10:16:48;;;;;;;;;;;4.50;87.70;;;;;;5007290;28;19909;-72
2022/02/05 10:19:14;;;;;;;;;;;4.50;87.20;;;;;;4990847;28;19952;-72
2022/02/05 10:21:40;;;;;;;;;;;4.50;87.10;;;;;;5006748;28;20220;-72
2022/02/05 10:24:08;;;;;;;;;;;4.30;87.40;;;;;;5024083;28;19916;-72
2022/02/05 10:26:37;;;;;;;;;;;4.30;88.50;;;;;;5006884;28;19918;-71
2022/02/05 10:29:04;;;;;;;;;;;4.30;88.40;;;;;;5004436;28;19921;-71
2022/02/05 10:31:30;;;;;;;;;;;4.40;87.60;;;;;;5020398;28;19913;-71
2022/02/05 10:34:11;;;;;;;;;;;4.70;85.90;;;;;;5007937;28;19916;-73
2022/02/05 10:36:41;;;;;;;;;;;5.10;83.40;;;;;;4994747;28;19910;-72
2022/02/05 10:39:13;;;;;;;;;;;5.30;82.80;;;;;;5006102;28;19917;-74
2022/02/05 10:44:28;;;;;;;;;;;5.40;80.20;;;;;;5009162;28;19960;-74
2022/02/05 10:46:55;;;;;;;;;;;5.20;80.10;;;;;;5022422;28;19945;-73
2022/02/05 10:49:51;;;;;;;;;;;5.10;81.40;;;;;;4988696;28;19909;-73
2022/02/05 10:52:30;;;;;;;;;;;5.10;81.40;;;;;;4991361;28;20203;-73
2022/02/05 10:55:09;;;;;;;;;;;5.40;80.90;;;;;;5006969;28;20291;-70
2022/02/05 10:57:54;;;;;;;;;;;6.10;77.80;;;;;;5023867;28;19980;-71
2022/02/05 11:05:41;;;;;;;;;;;8.20;67.20;;;;;;4995097;28;20116;-69
2022/02/05 11:08:08;;;;;;;;;;;9.00;63.50;;;;;;5023139;28;20112;-71
2022/02/05 11:13:24;;;;;;;;;;;8.20;64.00;;;;;;5008369;28;19917;-69
2022/02/05 11:21:06;;;;;;;;;;;8.30;63.00;;;;;;5007142;28;20212;-70
2022/02/05 11:23:34;;;;;;;;;;;8.10;63.40;;;;;;5023067;28;19910;-69
2022/02/05 11:26:00;;;;;;;;;;;8.50;63.20;;;;;;5023070;28;19909;-69
2022/02/05 11:28:46;;;;;;;;;;;8.60;65.00;;;;;;4989258;28;19992;-69
2022/02/05 11:31:42;;;;;;;;;;;9.10;60.40;;;;;;5022289;28;20200;-70
2022/02/05 11:34:25;;;;;;;;;;;10.30;56.10;;;;;;5022929;28;19909;-69
2022/02/05 11:36:59;;;;;;;;;;;9.60;57.10;;;;;;5022690;28;20124;-69
2022/02/05 11:39:25;;;;;;;;;;;8.70;60.50;;;;;;5022227;28;19976;-69
2022/02/05 11:41:51;;;;;;;;;;;8.00;64.10;;;;;;5022277;28;19913;-70
2022/02/05 11:44:24;;;;;;;;;;;8.20;64.50;;;;;;5022985;28;20147;-70
2022/02/05 11:47:08;;;;;;;;;;;8.20;62.00;;;;;;5022614;28;20108;-70
2022/02/05 11:49:52;;;;;;;;;;;8.20;63.00;;;;;;5022156;28;19918;-71
2022/02/05 11:52:36;;;;;;;;;;;8.10;63.10;;;;;;5022110;28;19913;-69
2022/02/05 11:55:02;;;;;;;;;;;8.60;61.70;;;;;;5022285;28;19916;-69
2022/02/05 11:57:44;;;;;;;;;;;8.50;61.20;;;;;;5022500;28;19932;-68
2022/02/05 12:00:12;;;;;;;;;;;8.00;65.10;;;;;;5022519;28;19932;-68
2022/02/05 12:02:43;;;;;;;;;;;7.80;66.80;;;;;;5022213;28;19928;-67
2022/02/05 12:05:15;;;;;;;;;;;7.20;68.50;;;;;;5022593;28;20032;-69
2022/02/05 12:08:06;;;;;;;;;;;6.80;70.30;;;;;;5004416;28;19968;-68
2022/02/05 12:10:41;;;;;;;;;;;6.60;70.90;;;;;;5022107;28;19918;-73
2022/02/05 12:13:13;;;;;;;;;;;6.20;71.90;;;;;;5022445;28;19910;-73
2022/02/05 12:15:39;;;;;;;;;;;6.10;73.00;;;;;;5022521;28;19910;-72
2022/02/05 12:21:00;;;;;;;;;;;5.80;74.40;;;;;;5021969;28;19983;-67
2022/02/05 12:26:20;;;;;;;;;;;5.70;76.70;;;;;;5022652;28;19948;-67
2022/02/05 12:28:49;;;;;;;;;;;5.60;78.30;;;;;;5022031;28;19909;-67
2022/02/05 12:31:18;;;;;;;;;;;5.70;78.30;;;;;;5021954;28;19913;-67
2022/02/05 12:34:01;;;;;;;;;;;5.90;78.20;;;;;;5022322;28;19918;-67
2022/02/05 12:36:30;;;;;;;;;;;6.00;76.30;;;;;;5022181;28;20016;-67
2022/02/05 12:38:57;;;;;;;;;;;5.90;73.80;;;;;;5021876;28;20109;-67
2022/02/05 12:41:24;;;;;;;;;;;6.00;73.80;;;;;;5021452;28;19916;-67
2022/02/05 12:44:01;;;;;;;;;;;6.10;73.40;;;;;;5005119;28;19909;-67
2022/02/05 12:46:37;;;;;;;;;;;6.10;74.40;;;;;;5022339;28;19909;-67
2022/02/05 12:49:08;;;;;;;;;;;6.30;73.90;;;;;;5021411;28;20191;-67
2022/02/05 12:51:33;;;;;;;;;;;6.10;72.00;;;;;;5005122;28;20117;-66
2022/02/05 12:54:14;;;;;;;;;;;6.40;71.70;;;;;;5004096;28;19916;-67
2022/02/05 12:56:41;;;;;;;;;;;6.60;70.80;;;;;;5022230;28;19980;-67
2022/02/05 12:59:12;;;;;;;;;;;6.30;71.90;;;;;;5022219;28;19972;-66
2022/02/05 13:01:48;;;;;;;;;;;6.10;74.20;;;;;;5021860;28;20139;-67
2022/02/05 13:04:18;;;;;;;;;;;6.00;73.70;;;;;;5021912;28;20228;-66
2022/02/05 13:06:43;;;;;;;;;;;5.90;73.50;;;;;;5022319;28;19924;-66
2022/02/05 13:09:19;;;;;;;;;;;6.10;72.50;;;;;;5021765;28;19909;-66
2022/02/05 13:11:45;;;;;;;;;;;6.20;72.20;;;;;;5021834;28;19986;-66
2022/02/05 13:14:11;;;;;;;;;;;6.20;72.70;;;;;;5022111;28;19914;-66
2022/02/05 13:16:37;;;;;;;;;;;6.40;72.00;;;;;;5004407;28;19924;-66
2022/02/05 13:19:20;;;;;;;;;;;6.20;72.10;;;;;;5017138;28;19918;-66
2022/02/05 13:28:00;;;;;;;;;;;7.20;69.50;;;;;;5006077;28;19917;-71
2022/02/05 13:36:12;;;;;;;;;;;6.30;73.20;;;;;;5002905;28;20223;-72
2022/02/05 13:38:57;;;;;;;;;;;6.20;74.50;;;;;;5022678;28;19913;-71
2022/02/05 13:44:16;;;;;;;;;;;8.20;62.40;;;;;;5002769;28;19910;-71
2022/02/05 13:46:42;;;;;;;;;;;8.70;60.40;;;;;;4996462;28;19913;-73
2022/02/05 13:49:16;;;;;;;;;;;8.60;61.30;;;;;;4994495;28;20104;-73
2022/02/05 13:51:42;;;;;;;;;;;9.50;58.90;;;;;;4983895;28;20116;-71
2022/02/05 13:54:07;;;;;;;;;;;10.00;55.40;;;;;;5024753;28;19932;-73
2022/02/05 13:56:34;;;;;;;;;;;9.30;56.80;;;;;;5004378;28;19940;-73
2022/02/05 13:59:00;;;;;;;;;;;8.60;58.50;;;;;;5021708;28;19917;-72
2022/02/05 14:01:33;;;;;;;;;;;8.10;61.30;;;;;;4991502;28;19953;-71
2022/02/05 14:04:13;;;;;;;;;;;7.80;62.60;;;;;;5019415;28;19914;-71
2022/02/05 14:06:57;;;;;;;;;;;7.70;63.40;;;;;;5004373;28;19960;-72
2022/02/05 14:09:25;;;;;;;;;;;7.50;64.80;;;;;;5020427;28;19909;-73
2022/02/05 14:11:51;;;;;;;;;;;7.40;64.80;;;;;;5007290;28;20231;-71
2022/02/05 14:14:25;;;;;;;;;;;7.20;66.80;;;;;;5007594;28;19909;-70
2022/02/05 14:16:51;;;;;;;;;;;6.90;68.70;;;;;;5013454;28;19921;-70
2022/02/05 14:19:21;;;;;;;;;;;6.60;70.70;;;;;;5005323;28;19910;-71
2022/02/05 14:21:49;;;;;;;;;;;6.70;72.00;;;;;;5008259;28;19910;-70
2022/02/05 14:24:15;;;;;;;;;;;6.60;72.50;;;;;;5021808;28;20150;-71
2022/02/05 14:26:52;;;;;;;;;;;6.40;73.80;;;;;;5024747;28;19955;-70
2022/02/05 14:29:19;;;;;;;;;;;6.30;75.00;;;;;;5009093;28;19914;-71
2022/02/05 14:31:48;;;;;;;;;;;6.10;76.30;;;;;;5023885;28;19913;-71
2022/02/05 14:42:08;;;;;;;;;;;6.10;78.50;;;;;;4999131;28;19932;-71
2022/02/05 14:44:34;;;;;;;;;;;6.10;77.70;;;;;;5009686;28;19968;-71
2022/02/05 14:46:59;;;;;;;;;;;5.90;76.30;;;;;;5019414;28;19914;-71
2022/02/05 14:49:25;;;;;;;;;;;5.80;75.60;;;;;;5007197;28;19917;-71
2022/02/05 14:51:51;;;;;;;;;;;5.70;77.40;;;;;;4997072;28;20173;-71
2022/02/05 14:54:17;;;;;;;;;;;5.60;77.70;;;;;;5020509;28;19914;-71
2022/02/05 14:56:43;;;;;;;;;;;5.60;77.80;;;;;;4987556;28;19944;-71
2022/02/05 14:59:09;;;;;;;;;;;5.60;77.30;;;;;;5014964;28;19933;-71
2022/02/05 15:01:35;;;;;;;;;;;5.50;77.50;;;;;;5013856;28;19909;-70
2022/02/05 15:04:01;;;;;;;;;;;5.60;76.10;;;;;;5013172;28;19933;-70
2022/02/05 15:06:29;;;;;;;;;;;5.60;76.20;;;;;;5014742;28;19936;-70
2022/02/05 15:08:57;;;;;;;;;;;5.50;76.30;;;;;;5013616;28;19913;-67
2022/02/05 15:11:24;;;;;;;;;;;5.40;75.90;;;;;;4996505;28;19914;-65
2022/02/05 15:13:49;;;;;;;;;;;5.30;75.60;;;;;;4996782;28;20135;-66
2022/02/05 15:16:17;;;;;;;;;;;5.20;76.30;;;;;;5013517;28;19920;-65
2022/02/05 15:18:51;;;;;;;;;;;5.20;76.60;;;;;;5011946;28;19998;-65
2022/02/05 15:21:17;;;;;;;;;;;5.30;75.80;;;;;;5012154;28;19967;-65
2022/02/05 15:23:43;;;;;;;;;;;5.30;76.60;;;;;;5021661;28;19918;-65
2022/02/05 15:26:08;;;;;;;;;;;5.30;76.60;;;;;;5015114;28;19922;-65
2022/02/05 15:28:34;;;;;;;;;;;5.20;77.30;;;;;;5014807;28;19985;-64
2022/02/05 15:31:02;;;;;;;;;;;5.20;78.00;;;;;;5013554;28;19918;-68
2022/02/05 15:33:31;;;;;;;;;;;5.20;78.10;;;;;;5010524;28;20911;-68
2022/02/05 15:36:01;;;;;;;;;;;5.10;78.60;;;;;;4990866;28;19909;-68
2022/02/05 15:44:03;;;;;;;;;;;5.10;79.70;;;;;;5013945;28;20041;-69
2022/02/05 15:46:29;;;;;;;;;;;5.20;79.60;;;;;;5018087;28;19925;-68
2022/02/05 15:48:54;;;;;;;;;;;5.10;79.90;;;;;;5019220;28;19913;-67
2022/02/05 15:51:22;;;;;;;;;;;5.10;79.80;;;;;;5004284;28;19918;-68
2022/02/05 15:53:55;;;;;;;;;;;5.10;79.90;;;;;;5006354;28;19914;-68
2022/02/05 15:56:37;;;;;;;;;;;5.00;80.00;;;;;;5007247;28;20294;-68
2022/02/05 15:59:04;;;;;;;;;;;5.00;80.30;;;;;;5016861;28;19929;-68
2022/02/05 16:01:30;;;;;;;;;;;4.90;80.60;;;;;;5021408;28;19914;-68
2022/02/05 16:03:56;;;;;;;;;;;4.80;81.20;;;;;;5003259;28;19910;-69
2022/02/05 16:06:22;;;;;;;;;;;4.70;81.60;;;;;;5009351;28;19914;-69
2022/02/05 16:08:48;;;;;;;;;;;4.70;81.80;;;;;;5017114;28;20003;-69
2022/02/05 16:11:17;;;;;;;;;;;4.70;82.40;;;;;;5021678;28;19921;-68
2022/02/05 16:13:45;;;;;;;;;;;4.70;82.40;;;;;;5022383;28;19909;-69
2022/02/05 16:16:11;;;;;;;;;;;4.70;82.60;;;;;;5008594;28;19909;-69
2022/02/05 16:18:37;;;;;;;;;;;4.60;83.10;;;;;;5006456;28;19928;-69
2022/02/05 16:21:03;;;;;;;;;;;4.60;83.70;;;;;;5016902;28;19968;-69
2022/02/05 16:23:29;;;;;;;;;;;4.60;84.10;;;;;;5022286;28;19921;-69
2022/02/05 16:25:55;;;;;;;;;;;4.60;85.40;;;;;;5022531;28;20204;-68
2022/02/05 16:28:21;;;;;;;;;;;4.70;84.40;;;;;;5004869;28;19909;-68
2022/02/05 16:30:49;;;;;;;;;;;4.60;84.50;;;;;;5021203;28;19913;-69
2022/02/05 16:33:19;;;;;;;;;;;4.70;84.50;;;;;;4997609;28;19914;-68
2022/02/05 16:35:47;;;;;;;;;;;4.70;84.60;;;;;;4997279;28;20090;-69
2022/02/05 16:38:18;;;;;;;;;;;4.70;84.60;;;;;;4990925;28;19921;-69
2022/02/05 16:40:45;;;;;;;;;;;4.80;84.60;;;;;;5021584;28;19971;-68
2022/02/05 16:43:11;;;;;;;;;;;4.80;84.80;;;;;;5021385;28;19917;-69
2022/02/05 16:45:37;;;;;;;;;;;4.80;85.00;;;;;;5022265;28;19913;-68
2022/02/05 16:48:05;;;;;;;;;;;4.80;85.00;;;;;;5004562;28;19941;-68
2022/02/05 16:50:31;;;;;;;;;;;4.80;85.40;;;;;;5022062;28;19909;-68
2022/02/05 16:53:02;;;;;;;;;;;4.80;85.30;;;;;;4999799;28;19968;-68
2022/02/05 16:55:27;;;;;;;;;;;4.80;85.60;;;;;;5008004;28;19952;-68
2022/02/05 16:57:53;;;;;;;;;;;4.80;86.00;;;;;;5010825;28;20116;-68
2022/02/05 17:00:19;;;;;;;;;;;4.70;86.30;;;;;;5018970;28;19929;-69
2022/02/05 17:02:44;;;;;;;;;;;4.70;86.50;;;;;;5012838;28;19983;-67
2022/02/05 17:05:10;;;;;;;;;;;4.70;86.60;;;;;;5025400;28;19959;-69
2022/02/05 17:07:36;;;;;;;;;;;4.70;86.70;;;;;;5007373;28;19964;-68
2022/02/05 17:10:03;;;;;;;;;;;4.70;87.20;;;;;;5015891;28;20224;-68
2022/02/05 17:12:28;;;;;;;;;;;4.60;87.40;;;;;;5014240;28;19921;-68
2022/02/05 17:14:56;;;;;;;;;;;4.60;87.60;;;;;;5005990;28;19945;-68
2022/02/05 17:17:22;;;;;;;;;;;4.70;87.70;;;;;;5017428;28;19952;-68
2022/02/05 17:19:51;;;;;;;;;;;4.60;88.00;;;;;;5025807;28;20108;-68
2022/02/05 17:22:18;;;;;;;;;;;4.70;87.90;;;;;;5008240;28;19941;-68
2022/02/05 17:24:43;;;;;;;;;;;4.60;87.80;;;;;;5018190;28;20112;-68
2022/02/05 17:27:09;;;;;;;;;;;4.60;88.00;;;;;;5025227;28;19916;-68
2022/02/05 17:29:37;;;;;;;;;;;4.50;88.60;;;;;;5006852;28;19918;-68
2022/02/05 17:32:06;;;;;;;;;;;4.40;88.90;;;;;;5009584;28;19918;-67
2022/02/05 17:34:40;;;;;;;;;;;4.40;89.10;;;;;;5011130;28;19917;-68
2022/02/05 17:37:06;;;;;;;;;;;4.30;89.10;;;;;;5005639;28;19914;-69
2022/02/05 17:39:34;;;;;;;;;;;4.40;88.90;;;;;;5018779;28;20317;-67